createdAt,value
2022-08-18T00:00:49.079Z,10.75
2022-08-18T00:06:52.695Z,11.40
2022-08-18T00:12:58.676Z,11.27
2022-08-18T00:19:09.411Z,10.75
2022-08-18T00:25:15.380Z,11.40
2022-08-18T00:31:19.162Z,11.73
2022-08-18T00:37:25.879Z,12.50
2022-08-18T00:43:36.800Z,12.52
2022-08-18T00:49:43.082Z,12.30
2022-08-18T00:55:53.794Z,11.57
2022-08-18T01:02:02.632Z,11.52
2022-08-18T01:08:06.329Z,11.07
2022-08-18T01:14:15.908Z,11.93
2022-08-18T01:20:44.351Z,12.00
2022-08-18T01:26:51.001Z,11.75
2022-08-18T01:32:54.614Z,11.45
2022-08-18T01:45:04.654Z,12.43
2022-08-18T01:51:10.824Z,11.00
2022-08-18T01:57:14.698Z,10.65
2022-08-18T02:03:19.608Z,11.27
2022-08-18T02:09:23.891Z,11.73
2022-08-18T02:15:28.253Z,11.63
2022-08-18T02:21:33.258Z,11.52
2022-08-18T02:27:36.871Z,11.57
2022-08-18T02:39:52.198Z,11.50
2022-08-18T02:45:55.958Z,11.93
2022-08-18T02:51:59.802Z,11.30
2022-08-18T02:58:04.769Z,11.52
2022-08-18T03:04:10.062Z,11.10
2022-08-18T03:10:31.755Z,11.95
2022-08-18T03:16:53.397Z,11.48
2022-08-18T03:22:58.637Z,11.20
2022-08-18T03:29:02.666Z,11.63
2022-08-18T03:35:08.791Z,11.80
2022-08-18T03:41:14.458Z,11.05
2022-08-18T03:47:38.231Z,12.48
2022-08-18T03:53:44.331Z,11.18
2022-08-18T03:59:47.857Z,11.43
2022-08-18T04:11:56.958Z,10.60
2022-08-18T04:18:03.591Z,11.95
2022-08-18T04:24:12.010Z,11.60
2022-08-18T04:30:16.968Z,11.48
2022-08-18T04:36:20.936Z,11.80
2022-08-18T04:42:24.589Z,14.38
2022-08-18T04:54:39.137Z,13.30
2022-08-18T05:00:43.831Z,12.45
2022-08-18T05:06:48.806Z,12.60
2022-08-18T05:12:52.376Z,12.27
2022-08-18T05:25:01.496Z,12.45
2022-08-18T05:31:13.502Z,12.85
2022-08-18T05:37:32.370Z,12.30
2022-08-18T05:43:51.410Z,13.05
2022-08-18T05:49:58.311Z,13.68
2022-08-18T05:56:23.767Z,12.15
2022-08-18T06:02:36.360Z,12.25
2022-08-18T06:08:44.807Z,12.18
2022-08-18T06:14:48.388Z,11.85
2022-08-18T06:21:18.274Z,12.10
2022-08-18T06:27:31.169Z,12.43
2022-08-18T06:33:51.504Z,12.10
2022-08-18T06:39:57.299Z,12.27
2022-08-18T06:46:02.513Z,12.05
2022-08-18T06:52:25.507Z,12.63
2022-08-18T06:58:31.674Z,13.63
2022-08-18T07:04:41.802Z,12.43
2022-08-18T07:10:47.131Z,12.60
2022-08-18T07:16:58.981Z,13.07
2022-08-18T07:23:08.251Z,13.25
2022-08-18T07:29:15.651Z,13.27
2022-08-18T07:35:25.100Z,13.43
2022-08-18T07:41:35.635Z,12.88
2022-08-18T07:47:45.814Z,12.75
2022-08-18T07:53:58.015Z,13.20
2022-08-18T08:00:18.663Z,13.30
2022-08-18T08:06:35.096Z,12.68
2022-08-18T08:12:46.493Z,12.35
2022-08-18T08:18:59.478Z,12.73
2022-08-18T08:25:28.298Z,12.30
2022-08-18T08:31:44.438Z,12.43
2022-08-18T08:37:53.019Z,12.57
2022-08-18T08:44:06.851Z,12.75
2022-08-18T08:50:15.513Z,12.40
2022-08-18T08:56:23.014Z,11.70
2022-08-18T09:03:01.769Z,11.48
2022-08-18T09:09:23.498Z,11.40
2022-08-18T09:15:41.497Z,10.85
2022-08-18T09:21:51.222Z,10.73
2022-08-18T09:28:12.046Z,11.35
2022-08-18T09:34:35.275Z,11.02
2022-08-18T09:41:07.180Z,11.23
2022-08-18T09:47:12.926Z,11.15
2022-08-18T09:53:38.687Z,9.80
2022-08-18T10:06:16.097Z,10.55
2022-08-18T10:12:31.138Z,10.98
2022-08-18T10:18:48.125Z,10.30
2022-08-18T10:25:09.181Z,10.65
2022-08-18T10:31:23.921Z,10.48
2022-08-18T10:37:35.722Z,10.60
2022-08-18T10:43:55.678Z,10.37
2022-08-18T10:50:04.226Z,10.68
2022-08-18T10:56:26.504Z,10.88
2022-08-18T11:09:26.935Z,10.15
2022-08-18T11:15:40.960Z,11.00
2022-08-18T11:21:51.358Z,9.80
2022-08-18T11:27:56.502Z,11.02
2022-08-18T11:34:00.382Z,10.02
2022-08-18T11:40:17.680Z,9.60
2022-08-18T11:46:38.775Z,10.25
2022-08-18T11:52:53.976Z,10.15
2022-08-18T11:59:01.902Z,10.90
2022-08-18T12:05:10.448Z,11.18
2022-08-18T12:11:27.087Z,11.60
2022-08-18T12:17:34.051Z,11.02
2022-08-18T12:23:49.591Z,12.30
2022-08-18T12:29:58.383Z,11.15
2022-08-18T12:36:04.283Z,10.80
2022-08-18T12:42:08.028Z,11.05
2022-08-18T12:48:14.032Z,10.32
2022-08-18T12:54:20.551Z,10.25
2022-08-18T13:00:28.836Z,10.45
2022-08-18T13:06:35.871Z,11.13
2022-08-18T13:12:40.832Z,10.90
2022-08-18T13:18:47.191Z,10.25
2022-08-18T13:24:50.875Z,11.30
2022-08-18T13:30:57.355Z,11.20
2022-08-18T13:37:02.861Z,11.13
2022-08-18T13:43:09.309Z,10.55
2022-08-18T13:49:15.466Z,10.77
2022-08-18T13:55:23.574Z,11.10
2022-08-18T14:01:50.085Z,11.70
2022-08-18T14:07:53.711Z,10.80
2022-08-18T14:13:58.241Z,10.50
2022-08-18T14:20:22.187Z,10.35
2022-08-18T14:26:51.015Z,10.98
2022-08-18T14:32:54.865Z,10.98
2022-08-18T14:39:03.356Z,11.30
2022-08-18T14:45:17.676Z,11.02
2022-08-18T14:51:35.473Z,11.60
2022-08-18T14:57:39.911Z,10.27
2022-08-18T15:03:46.146Z,10.20
2022-08-18T15:10:15.227Z,10.23
2022-08-18T15:16:17.362Z,9.70
2022-08-18T15:22:39.777Z,10.38
2022-08-18T15:28:43.640Z,10.63
2022-08-18T15:34:51.269Z,10.60
2022-08-18T15:40:59.239Z,10.95
2022-08-18T15:47:12.635Z,11.60
2022-08-18T15:53:17.891Z,11.60
2022-08-18T15:59:22.826Z,10.88
2022-08-18T16:05:41.941Z,11.05
2022-08-18T16:11:45.484Z,11.52
2022-08-18T16:17:51.710Z,11.23
2022-08-18T16:23:55.847Z,11.27
2022-08-18T16:29:59.350Z,11.82
2022-08-18T16:36:10.268Z,11.63
2022-08-18T16:42:13.769Z,11.82
2022-08-18T16:48:17.342Z,12.48
2022-08-18T16:54:22.707Z,12.45
2022-08-18T17:00:45.248Z,11.63
2022-08-18T17:06:48.850Z,11.68
2022-08-18T17:12:53.836Z,12.02
2022-08-18T17:18:59.007Z,12.23
2022-08-18T17:25:04.174Z,11.90
2022-08-18T17:31:12.169Z,11.88
2022-08-18T17:37:18.277Z,12.88
2022-08-18T17:43:24.914Z,12.02
2022-08-18T17:49:48.187Z,11.52
2022-08-18T17:56:02.850Z,11.57
2022-08-18T18:02:16.585Z,11.45
2022-08-18T18:08:59.414Z,12.05
2022-08-18T18:15:07.454Z,11.60
2022-08-18T18:21:24.144Z,11.90
2022-08-18T18:27:50.106Z,11.82
2022-08-18T18:34:00.810Z,11.95
2022-08-18T18:40:18.640Z,12.52
2022-08-18T18:46:34.742Z,12.30
2022-08-18T18:52:52.874Z,11.75
2022-08-18T18:59:04.399Z,12.52
2022-08-18T19:05:21.647Z,12.00
2022-08-18T19:11:34.327Z,12.10
2022-08-18T19:17:43.389Z,12.38
2022-08-18T19:23:55.858Z,12.13
2022-08-18T19:30:03.119Z,11.87
2022-08-18T19:36:19.752Z,13.23
2022-08-18T19:42:35.281Z,12.25
2022-08-18T19:48:43.586Z,12.13
2022-08-18T19:55:02.133Z,12.77
2022-08-18T20:01:21.078Z,12.95
2022-08-18T20:08:07.235Z,12.38
2022-08-18T20:14:12.791Z,11.90
2022-08-18T20:20:18.649Z,12.70
2022-08-18T20:26:43.539Z,12.30
2022-08-18T20:33:09.200Z,12.57
2022-08-18T20:39:34.580Z,11.05
2022-08-18T20:45:42.706Z,10.63
2022-08-18T20:51:57.850Z,9.52
2022-08-18T20:58:08.250Z,9.02
2022-08-18T21:04:13.593Z,9.02
2022-08-18T21:10:23.659Z,8.02
2022-08-18T21:16:39.140Z,8.93
2022-08-18T21:22:44.967Z,8.13
2022-08-18T21:28:52.691Z,7.50
2022-08-18T21:34:57.829Z,7.63
2022-08-18T21:41:02.448Z,8.20
2022-08-18T21:47:10.141Z,7.05
2022-08-18T21:53:21.541Z,7.38
2022-08-18T21:59:25.087Z,7.68
2022-08-18T22:05:59.087Z,7.60
2022-08-18T22:12:37.837Z,7.70
2022-08-18T22:18:41.371Z,8.00
2022-08-18T22:24:45.033Z,8.15
2022-08-18T22:30:49.950Z,7.57
2022-08-18T22:36:59.846Z,8.13
2022-08-18T22:43:03.289Z,8.27
2022-08-18T22:49:08.150Z,7.75
2022-08-18T22:55:14.417Z,7.82
2022-08-18T23:01:17.962Z,7.22
2022-08-18T23:07:23.803Z,8.13
2022-08-18T23:13:27.307Z,7.72
2022-08-18T23:19:31.977Z,8.10
2022-08-18T23:25:37.016Z,7.20
2022-08-18T23:31:42.112Z,7.53
2022-08-18T23:37:46.768Z,7.53
2022-08-18T23:43:52.566Z,7.05
2022-08-18T23:49:56.132Z,7.55
2022-08-18T23:55:59.817Z,7.68
